createdAt,value
2018-01-03T00:00:46.386Z,0
2018-01-03T00:01:46.135Z,0
2018-01-03T00:02:46.114Z,0
2018-01-03T00:03:46.625Z,0
2018-01-03T00:04:46.071Z,0
2018-01-03T00:05:46.350Z,0
2018-01-03T00:06:46.557Z,0
2018-01-03T00:07:46.346Z,0
2018-01-03T00:08:46.340Z,0
2018-01-03T00:09:46.344Z,0
2018-01-03T00:10:46.070Z,0
2018-01-03T00:11:46.072Z,0
2018-01-03T00:12:46.576Z,0
2018-01-03T00:13:46.540Z,0
2018-01-03T00:14:46.021Z,0
2018-01-03T00:15:46.042Z,0
2018-01-03T00:16:45.986Z,0
2018-01-03T00:17:45.745Z,0
2018-01-03T00:18:45.970Z,0
2018-01-03T00:19:45.994Z,0
2018-01-03T00:20:45.721Z,0
2018-01-03T00:21:45.986Z,0
2018-01-03T00:22:45.990Z,0
2018-01-03T00:23:46.212Z,0
2018-01-03T00:24:45.958Z,0
2018-01-03T00:25:45.934Z,0
2018-01-03T00:26:46.173Z,0
2018-01-03T00:27:45.684Z,0
2018-01-03T00:28:45.919Z,0
2018-01-03T00:29:45.893Z,0
2018-01-03T00:30:46.140Z,0
2018-01-03T00:31:45.884Z,0
2018-01-03T00:32:46.395Z,0
2018-01-03T00:33:46.138Z,0
2018-01-03T00:34:46.140Z,0
2018-01-03T00:35:45.856Z,0
2018-01-03T00:36:46.142Z,0
2018-01-03T00:37:45.869Z,0
2018-01-03T00:38:46.350Z,0
2018-01-03T00:39:45.850Z,0
2018-01-03T00:40:45.846Z,0
2018-01-03T00:41:45.863Z,0
2018-01-03T00:42:46.316Z,0
2018-01-03T00:43:45.550Z,0
2018-01-03T00:44:45.800Z,0
2018-01-03T00:45:45.762Z,0
2018-01-03T00:46:46.027Z,0
2018-01-03T00:47:46.296Z,0
2018-01-03T00:48:45.782Z,0
2018-01-03T00:49:45.998Z,0
2018-01-03T00:50:46.233Z,0
2018-01-03T00:51:46.024Z,0
2018-01-03T00:52:45.740Z,0
2018-01-03T00:53:45.758Z,0
2018-01-03T00:54:45.712Z,0
2018-01-03T00:55:45.950Z,0
2018-01-03T00:56:45.456Z,0
2018-01-03T00:57:45.950Z,0
2018-01-03T00:58:45.927Z,0
2018-01-03T00:59:45.938Z,0
2018-01-03T01:00:45.928Z,0
2018-01-03T01:01:46.168Z,0
2018-01-03T01:02:45.696Z,0
2018-01-03T01:03:45.907Z,0
2018-01-03T01:04:45.901Z,0
2018-01-03T01:05:46.058Z,0
2018-01-03T01:06:45.894Z,0
2018-01-03T01:07:45.385Z,0
2018-01-03T01:08:45.381Z,0
2018-01-03T01:09:45.627Z,0
2018-01-03T01:10:45.874Z,0
2018-01-03T01:11:45.614Z,0
2018-01-03T01:12:45.883Z,0
2018-01-03T01:13:46.095Z,0
2018-01-03T01:14:46.084Z,0
2018-01-03T01:15:46.075Z,0
2018-01-03T01:16:46.072Z,0
2018-01-03T01:17:45.830Z,0
2018-01-03T01:18:45.575Z,0
2018-01-03T01:19:46.069Z,0
2018-01-03T01:20:45.805Z,0
2018-01-03T01:21:45.804Z,0
2018-01-03T01:22:45.536Z,0
2018-01-03T01:23:45.025Z,0
2018-01-03T01:24:45.770Z,0
2018-01-03T01:25:46.020Z,0
2018-01-03T01:26:45.534Z,0
2018-01-03T01:27:44.998Z,0
2018-01-03T01:28:45.270Z,0
2018-01-03T01:29:45.758Z,0
2018-01-03T01:30:45.503Z,0
2018-01-03T01:31:45.482Z,0
2018-01-03T01:32:45.487Z,0
2018-01-03T01:33:45.479Z,0
2018-01-03T01:34:45.972Z,0
2018-01-03T01:35:45.458Z,0
2018-01-03T01:36:45.697Z,0
2018-01-03T01:37:45.199Z,0
2018-01-03T01:38:45.441Z,0
2018-01-03T01:39:46.001Z,0
2018-01-03T01:40:45.201Z,0
2018-01-03T01:41:45.422Z,0
2018-01-03T01:42:45.702Z,0
2018-01-03T01:43:45.660Z,0
2018-01-03T01:44:45.402Z,0
2018-01-03T01:45:45.146Z,0
2018-01-03T01:46:45.153Z,0
2018-01-03T01:47:45.382Z,0
2018-01-03T01:48:45.127Z,0
2018-01-03T01:49:45.385Z,0
2018-01-03T01:50:45.374Z,0
2018-01-03T01:51:45.891Z,0
2018-01-03T01:52:45.613Z,0
2018-01-03T01:53:45.359Z,0
2018-01-03T01:54:45.604Z,0
2018-01-03T01:55:45.128Z,0
2018-01-03T01:56:44.875Z,0
2018-01-03T01:57:45.327Z,0
2018-01-03T01:58:45.324Z,0
2018-01-03T01:59:45.823Z,0
2018-01-03T02:00:45.560Z,0
2018-01-03T02:01:45.807Z,0
2018-01-03T02:02:45.316Z,0
2018-01-03T02:03:45.283Z,0
2018-01-03T02:04:45.287Z,0
2018-01-03T02:05:45.544Z,0
2018-01-03T02:06:45.290Z,0
2018-01-03T02:07:45.267Z,0
2018-01-03T02:08:45.012Z,0
2018-01-03T02:09:45.508Z,0
2018-01-03T02:10:44.990Z,0
2018-01-03T02:11:45.253Z,0
2018-01-03T02:12:45.745Z,0
2018-01-03T02:13:45.479Z,0
2018-01-03T02:14:45.470Z,0
2018-01-03T02:15:45.220Z,0
2018-01-03T02:16:45.478Z,0
2018-01-03T02:17:45.205Z,0
2018-01-03T02:18:45.455Z,0
2018-01-03T02:19:45.459Z,0
2018-01-03T02:20:45.201Z,0
2018-01-03T02:21:45.185Z,0
2018-01-03T02:22:44.930Z,0
2018-01-03T02:23:45.422Z,0
2018-01-03T02:24:44.979Z,0
2018-01-03T02:25:44.983Z,0
2018-01-03T02:26:45.409Z,0
2018-01-03T02:27:45.401Z,0
2018-01-03T02:28:44.945Z,0
2018-01-03T02:29:44.883Z,0
2018-01-03T02:30:45.388Z,0
2018-01-03T02:31:45.643Z,0
2018-01-03T02:32:44.925Z,0
2018-01-03T02:33:45.365Z,0
2018-01-03T02:34:45.354Z,0
2018-01-03T02:35:45.103Z,0
2018-01-03T02:36:45.118Z,0
2018-01-03T02:37:45.105Z,0
2018-01-03T02:38:45.347Z,0
2018-01-03T02:39:45.090Z,0
2018-01-03T02:40:45.328Z,0
2018-01-03T02:41:45.088Z,0
2018-01-03T02:42:45.313Z,0
2018-01-03T02:43:44.801Z,0
2018-01-03T02:44:45.299Z,0
2018-01-03T02:45:44.794Z,0
2018-01-03T02:46:45.044Z,0
2018-01-03T02:47:45.036Z,0
2018-01-03T02:48:45.044Z,0
2018-01-03T02:49:45.028Z,0
2018-01-03T02:50:45.275Z,0
2018-01-03T02:51:45.013Z,0
2018-01-03T02:52:45.263Z,0
2018-01-03T02:53:45.262Z,0
2018-01-03T02:54:45.264Z,0
2018-01-03T02:55:44.486Z,0
2018-01-03T02:56:45.298Z,0
2018-01-03T02:57:45.317Z,0
2018-01-03T02:58:44.972Z,0
2018-01-03T02:59:44.975Z,0
2018-01-03T03:00:45.618Z,0
2018-01-03T03:01:44.968Z,0
2018-01-03T03:02:44.963Z,0
2018-01-03T03:03:44.987Z,0
2018-01-03T03:04:45.196Z,0
2018-01-03T03:05:45.184Z,0
2018-01-03T03:06:45.251Z,0
2018-01-03T03:07:45.471Z,0
2018-01-03T03:08:45.441Z,0
2018-01-03T03:09:44.661Z,0
2018-01-03T03:10:45.162Z,0
2018-01-03T03:11:44.907Z,0
2018-01-03T03:12:45.146Z,0
2018-01-03T03:13:44.890Z,0
2018-01-03T03:14:45.136Z,0
2018-01-03T03:15:45.134Z,0
2018-01-03T03:16:44.886Z,0
2018-01-03T03:17:45.143Z,0
2018-01-03T03:18:44.877Z,0
2018-01-03T03:19:44.857Z,0
2018-01-03T03:20:45.110Z,0
2018-01-03T03:21:44.855Z,0
2018-01-03T03:22:44.386Z,0
2018-01-03T03:23:45.336Z,0
2018-01-03T03:24:45.081Z,0
2018-01-03T03:25:45.095Z,0
2018-01-03T03:26:44.828Z,0
2018-01-03T03:27:45.071Z,0
2018-01-03T03:28:44.566Z,0
2018-01-03T03:29:45.130Z,0
2018-01-03T03:30:45.315Z,0
2018-01-03T03:31:45.059Z,0
2018-01-03T03:32:45.333Z,0
2018-01-03T03:33:44.786Z,0
2018-01-03T03:34:44.540Z,0
2018-01-03T03:35:44.774Z,0
2018-01-03T03:36:44.261Z,0
2018-01-03T03:37:44.514Z,0
2018-01-03T03:38:45.013Z,0
2018-01-03T03:39:44.753Z,0
2018-01-03T03:40:44.742Z,0
2018-01-03T03:41:45.252Z,0
2018-01-03T03:42:45.252Z,0
2018-01-03T03:43:44.983Z,0
2018-01-03T03:44:44.976Z,0
2018-01-03T03:45:44.968Z,0
2018-01-03T03:46:44.715Z,0
2018-01-03T03:47:44.793Z,0
2018-01-03T03:48:44.204Z,0
2018-01-03T03:49:44.951Z,0
2018-01-03T03:50:44.710Z,0
2018-01-03T03:51:44.456Z,0
2018-01-03T03:52:45.188Z,0
2018-01-03T03:53:44.936Z,0
2018-01-03T03:54:44.951Z,0
2018-01-03T03:55:44.669Z,0
2018-01-03T03:56:44.525Z,0
2018-01-03T03:57:44.670Z,0
2018-01-03T03:58:44.717Z,0
2018-01-03T03:59:44.906Z,0
2018-01-03T04:00:44.904Z,0
2018-01-03T04:01:45.163Z,0
2018-01-03T04:02:44.388Z,0
2018-01-03T04:03:44.642Z,0
2018-01-03T04:04:44.878Z,0
2018-01-03T04:05:44.884Z,0
2018-01-03T04:06:44.367Z,0
2018-01-03T04:07:44.864Z,0
2018-01-03T04:08:44.871Z,0
2018-01-03T04:09:44.610Z,0
2018-01-03T04:10:45.114Z,0
2018-01-03T04:11:44.601Z,0
2018-01-03T04:12:44.599Z,0
2018-01-03T04:13:44.604Z,0
2018-01-03T04:14:44.849Z,0
2018-01-03T04:15:44.633Z,0
2018-01-03T04:16:44.574Z,0
2018-01-03T04:17:44.569Z,0
2018-01-03T04:18:44.865Z,0
2018-01-03T04:19:44.559Z,0
2018-01-03T04:20:44.557Z,0
2018-01-03T04:21:44.545Z,0
2018-01-03T04:22:44.800Z,0
2018-01-03T04:23:44.803Z,0
2018-01-03T04:24:44.544Z,0
2018-01-03T04:25:44.029Z,0
2018-01-03T04:26:44.780Z,0
2018-01-03T04:27:44.523Z,0
2018-01-03T04:28:45.829Z,0
2018-01-03T04:29:44.506Z,0
2018-01-03T04:30:44.762Z,0
2018-01-03T04:31:44.759Z,0
2018-01-03T04:32:44.749Z,0
2018-01-03T04:33:44.504Z,0
2018-01-03T04:34:44.741Z,0
2018-01-03T04:35:44.483Z,0
2018-01-03T04:36:44.743Z,0
2018-01-03T04:37:44.982Z,0
2018-01-03T04:38:44.971Z,0
2018-01-03T04:39:44.718Z,0
2018-01-03T04:40:44.715Z,0
2018-01-03T04:41:44.719Z,0
2018-01-03T04:42:44.954Z,0
2018-01-03T04:43:44.456Z,0
2018-01-03T04:44:44.715Z,0
2018-01-03T04:45:44.946Z,0
2018-01-03T04:46:44.466Z,0
2018-01-03T04:47:44.175Z,0
2018-01-03T04:48:44.432Z,0
2018-01-03T04:49:44.672Z,0
2018-01-03T04:50:44.663Z,0
2018-01-03T04:51:44.664Z,0
2018-01-03T04:52:44.415Z,0
2018-01-03T04:53:44.907Z,0
2018-01-03T04:54:44.648Z,0
2018-01-03T04:55:44.145Z,0
2018-01-03T04:56:44.903Z,0
2018-01-03T04:57:44.128Z,0
2018-01-03T04:58:44.645Z,0
2018-01-03T04:59:44.879Z,0
2018-01-03T05:00:44.619Z,0
2018-01-03T05:01:44.869Z,0
2018-01-03T05:02:44.613Z,0
2018-01-03T05:03:44.611Z,0
2018-01-03T05:04:44.359Z,0
2018-01-03T05:05:44.857Z,0
2018-01-03T05:06:44.857Z,0
2018-01-03T05:07:44.606Z,0
2018-01-03T05:08:44.087Z,0
2018-01-03T05:09:44.602Z,0
2018-01-03T05:10:43.830Z,0
2018-01-03T05:11:44.840Z,0
2018-01-03T05:12:44.327Z,0
2018-01-03T05:13:44.580Z,0
2018-01-03T05:14:44.566Z,0
2018-01-03T05:15:44.079Z,0
2018-01-03T05:16:44.322Z,0
2018-01-03T05:17:44.309Z,0
2018-01-03T05:18:44.555Z,0
2018-01-03T05:19:44.552Z,0
2018-01-03T05:20:44.550Z,0
2018-01-03T05:21:44.551Z,0
2018-01-03T05:22:44.536Z,0
2018-01-03T05:23:44.792Z,0
2018-01-03T05:24:44.040Z,0
2018-01-03T05:25:44.285Z,0
2018-01-03T05:26:44.538Z,0
2018-01-03T05:27:44.801Z,0
2018-01-03T05:28:44.517Z,0
2018-01-03T05:29:44.024Z,0
2018-01-03T05:30:44.543Z,0
2018-01-03T05:31:44.252Z,0
2018-01-03T05:32:44.783Z,0
2018-01-03T05:33:44.769Z,0
2018-01-03T05:34:44.255Z,0
2018-01-03T05:35:44.496Z,0
2018-01-03T05:36:44.505Z,0
2018-01-03T05:37:44.740Z,0
2018-01-03T05:38:44.747Z,0
2018-01-03T05:39:44.751Z,0
2018-01-03T05:40:44.743Z,0
2018-01-03T05:41:44.746Z,0
2018-01-03T05:42:44.472Z,0
2018-01-03T05:43:44.202Z,0
2018-01-03T05:44:44.208Z,0
2018-01-03T05:45:43.702Z,0
2018-01-03T05:46:43.951Z,0
2018-01-03T05:47:43.945Z,0
2018-01-03T05:48:44.200Z,0
2018-01-03T05:49:44.191Z,0
2018-01-03T05:50:44.189Z,0
2018-01-03T05:51:44.453Z,0
2018-01-03T05:52:44.182Z,0
2018-01-03T05:53:44.688Z,0
2018-01-03T05:54:44.171Z,0
2018-01-03T05:55:44.429Z,0
2018-01-03T05:56:44.451Z,0
2018-01-03T05:57:44.410Z,0
2018-01-03T05:58:44.417Z,0
2018-01-03T05:59:44.661Z,0
2018-01-03T06:00:44.402Z,0
2018-01-03T06:01:44.652Z,0
2018-01-03T06:02:44.647Z,0
2018-01-03T06:03:44.657Z,0
2018-01-03T06:04:44.404Z,0
2018-01-03T06:05:44.388Z,0
2018-01-03T06:06:44.132Z,0
2018-01-03T06:07:44.384Z,0
2018-01-03T06:08:44.383Z,0
2018-01-03T06:09:44.123Z,0
2018-01-03T06:10:44.366Z,0
2018-01-03T06:11:44.619Z,0
2018-01-03T06:12:43.854Z,0
2018-01-03T06:13:44.610Z,0
2018-01-03T06:14:44.357Z,0
2018-01-03T06:15:44.344Z,0
2018-01-03T06:16:44.387Z,0
2018-01-03T06:17:43.845Z,0
2018-01-03T06:18:44.592Z,0
2018-01-03T06:19:44.337Z,0
2018-01-03T06:20:44.591Z,0
2018-01-03T06:21:44.585Z,0
2018-01-03T06:22:44.585Z,0
2018-01-03T06:23:44.333Z,0
2018-01-03T06:24:44.096Z,0
2018-01-03T06:25:44.326Z,0
2018-01-03T06:26:44.560Z,0
2018-01-03T06:27:43.566Z,0
2018-01-03T06:28:44.310Z,0
2018-01-03T06:29:44.309Z,0
2018-01-03T06:30:44.310Z,0
2018-01-03T06:31:44.047Z,0
2018-01-03T06:32:44.298Z,0
2018-01-03T06:33:43.779Z,0
2018-01-03T06:34:44.550Z,0
2018-01-03T06:35:44.054Z,0
2018-01-03T06:36:44.533Z,0
2018-01-03T06:37:44.022Z,0
2018-01-03T06:38:44.267Z,0
2018-01-03T06:39:44.291Z,0
2018-01-03T06:40:44.021Z,0
2018-01-03T06:41:44.015Z,0
2018-01-03T06:42:44.258Z,0
2018-01-03T06:43:44.254Z,0
2018-01-03T06:44:43.754Z,0
2018-01-03T06:45:43.748Z,0
2018-01-03T06:46:43.985Z,0
2018-01-03T06:47:43.990Z,0
2018-01-03T06:48:43.983Z,0
2018-01-03T06:49:44.488Z,0
2018-01-03T06:50:44.232Z,0
2018-01-03T06:51:44.235Z,0
2018-01-03T06:52:43.984Z,0
2018-01-03T06:53:44.232Z,0
2018-01-03T06:54:44.494Z,0
2018-01-03T06:55:44.265Z,0
2018-01-03T06:56:43.957Z,0
2018-01-03T06:57:44.479Z,0
2018-01-03T06:58:43.960Z,0
2018-01-03T06:59:44.463Z,0
2018-01-03T07:00:44.469Z,0
2018-01-03T07:01:43.985Z,0
2018-01-03T07:02:43.942Z,0
2018-01-03T07:03:43.945Z,0
2018-01-03T07:04:43.690Z,0
2018-01-03T07:05:43.933Z,0
2018-01-03T07:06:44.444Z,0
2018-01-03T07:07:43.674Z,0
2018-01-03T07:08:44.436Z,0
2018-01-03T07:09:44.430Z,0
2018-01-03T07:10:43.928Z,0
2018-01-03T07:11:43.910Z,0
2018-01-03T07:12:43.405Z,0
2018-01-03T07:13:44.430Z,0
2018-01-03T07:14:44.167Z,0
2018-01-03T07:15:44.158Z,0
2018-01-03T07:16:44.407Z,0
2018-01-03T07:17:44.408Z,0
2018-01-03T07:18:43.670Z,0
2018-01-03T07:19:43.889Z,0
2018-01-03T07:20:43.900Z,0
2018-01-03T07:21:44.149Z,0
2018-01-03T07:22:44.390Z,0
2018-01-03T07:23:43.881Z,0
2018-01-03T07:24:44.139Z,0
2018-01-03T07:25:43.869Z,0
2018-01-03T07:26:44.371Z,0
2018-01-03T07:27:43.872Z,0
2018-01-03T07:28:43.626Z,0
2018-01-03T07:29:43.650Z,0
2018-01-03T07:30:43.868Z,0
2018-01-03T07:31:43.870Z,0
2018-01-03T07:32:44.112Z,0
2018-01-03T07:33:44.115Z,0
2018-01-03T07:34:43.597Z,0
2018-01-03T07:35:43.599Z,0
2018-01-03T07:36:44.382Z,0
2018-01-03T07:37:43.840Z,0
2018-01-03T07:38:43.838Z,0
2018-01-03T07:39:44.333Z,0
2018-01-03T07:40:43.830Z,0
2018-01-03T07:41:44.323Z,0
2018-01-03T07:42:43.843Z,0
2018-01-03T07:43:44.063Z,0
2018-01-03T07:44:43.822Z,0
2018-01-03T07:45:43.812Z,0
2018-01-03T07:46:43.552Z,0
2018-01-03T07:47:44.049Z,0
2018-01-03T07:48:44.104Z,5
2018-01-03T07:49:43.539Z,5
2018-01-03T07:50:44.031Z,5
2018-01-03T07:51:44.035Z,5
2018-01-03T07:52:43.770Z,5
2018-01-03T07:53:43.775Z,5
2018-01-03T07:54:44.556Z,5
2018-01-03T07:55:43.748Z,5
2018-01-03T07:56:43.996Z,5
2018-01-03T07:57:43.744Z,0
2018-01-03T07:58:43.495Z,0
2018-01-03T07:59:43.745Z,0
2018-01-03T08:00:43.673Z,0
2018-01-03T08:01:43.969Z,0
2018-01-03T08:02:43.710Z,0
2018-01-03T08:03:44.207Z,0
2018-01-03T08:04:43.721Z,0
2018-01-03T08:05:43.693Z,0
2018-01-03T08:06:44.182Z,0
2018-01-03T08:07:43.673Z,0
2018-01-03T08:08:43.699Z,0
2018-01-03T08:09:43.715Z,0
2018-01-03T08:10:43.917Z,0
2018-01-03T08:11:44.161Z,0
2018-01-03T08:12:44.177Z,0
2018-01-03T08:13:43.650Z,0
2018-01-03T08:14:44.133Z,0
2018-01-03T08:15:43.881Z,0
2018-01-03T08:16:43.372Z,0
2018-01-03T08:17:43.635Z,0
2018-01-03T08:18:43.876Z,5
2018-01-03T08:19:43.359Z,5
2018-01-03T08:20:44.111Z,10
2018-01-03T08:21:44.109Z,15
2018-01-03T08:22:43.857Z,20
2018-01-03T08:23:43.342Z,20
2018-01-03T08:24:43.588Z,25
2018-01-03T08:25:43.322Z,25
2018-01-03T08:26:44.084Z,25
2018-01-03T08:27:43.560Z,25
2018-01-03T08:28:43.308Z,15
2018-01-03T08:29:43.337Z,10
2018-01-03T08:30:43.818Z,5
2018-01-03T08:31:44.041Z,5
2018-01-03T08:32:43.771Z,5
2018-01-03T08:33:43.265Z,5
2018-01-03T08:34:43.533Z,5
2018-01-03T08:35:44.096Z,5
2018-01-03T08:37:15.605Z,5
2018-01-03T08:37:43.497Z,5
2018-01-03T08:38:43.995Z,5
2018-01-03T08:39:43.491Z,5
2018-01-03T08:40:43.823Z,5
2018-01-03T08:41:43.734Z,5
2018-01-03T08:42:43.484Z,10
2018-01-03T08:43:43.469Z,10
2018-01-03T08:44:43.975Z,15
2018-01-03T08:45:43.705Z,25
2018-01-03T08:46:43.454Z,30
2018-01-03T08:47:43.937Z,35
2018-01-03T08:48:43.696Z,30
2018-01-03T08:49:43.925Z,25
2018-01-03T08:50:43.677Z,15
2018-01-03T08:51:43.916Z,10
2018-01-03T08:52:43.681Z,5
2018-01-03T08:53:43.414Z,5
2018-01-03T08:54:43.911Z,5
2018-01-03T08:55:43.899Z,5
2018-01-03T08:56:43.661Z,5
2018-01-03T08:57:43.901Z,5
2018-01-03T08:58:43.872Z,5
2018-01-03T08:59:43.648Z,5
2018-01-03T09:00:43.652Z,5
2018-01-03T09:01:43.117Z,5
2018-01-03T09:02:43.368Z,10
2018-01-03T09:03:43.644Z,15
2018-01-03T09:04:43.363Z,20
2018-01-03T09:05:43.854Z,20
2018-01-03T09:06:43.648Z,25
2018-01-03T09:07:43.584Z,30
2018-01-03T09:08:43.326Z,30
2018-01-03T09:09:43.585Z,45
2018-01-03T09:10:43.834Z,50
2018-01-03T09:11:43.319Z,45
2018-01-03T09:12:43.309Z,45
2018-01-03T09:13:43.309Z,40
2018-01-03T09:14:43.572Z,35
2018-01-03T09:15:43.536Z,25
2018-01-03T09:16:43.789Z,20
2018-01-03T09:17:43.267Z,20
2018-01-03T09:18:43.268Z,15
2018-01-03T09:19:43.549Z,15
2018-01-03T09:20:43.749Z,15
2018-01-03T09:21:43.253Z,15
2018-01-03T09:22:43.239Z,20
2018-01-03T09:23:43.751Z,15
2018-01-03T09:24:43.226Z,15
2018-01-03T09:25:43.766Z,15
2018-01-03T09:26:42.997Z,15
2018-01-03T09:27:43.213Z,10
2018-01-03T09:28:43.453Z,10
2018-01-03T09:29:43.447Z,10
2018-01-03T09:30:43.714Z,10
2018-01-03T09:31:43.219Z,10
2018-01-03T09:32:43.695Z,15
2018-01-03T09:33:43.440Z,15
2018-01-03T09:34:43.435Z,15
2018-01-03T09:35:43.442Z,15
2018-01-03T09:36:43.421Z,15
2018-01-03T09:37:43.407Z,10
2018-01-03T09:38:43.682Z,10
2018-01-03T09:39:43.411Z,15
2018-01-03T09:40:43.385Z,20
2018-01-03T09:41:43.386Z,25
2018-01-03T09:42:42.890Z,15
2018-01-03T09:43:43.169Z,5
2018-01-03T09:44:42.924Z,5
2018-01-03T09:45:43.122Z,0
2018-01-03T09:46:42.856Z,5
2018-01-03T09:47:43.380Z,10
2018-01-03T09:48:43.103Z,15
2018-01-03T09:49:42.838Z,15
2018-01-03T09:50:43.386Z,15
2018-01-03T09:51:43.110Z,15
2018-01-03T09:52:43.591Z,20
2018-01-03T09:53:43.346Z,35
2018-01-03T09:54:43.593Z,55
2018-01-03T09:55:43.306Z,60
2018-01-03T09:56:43.553Z,60
2018-01-03T09:57:42.536Z,50
2018-01-03T09:58:43.035Z,50
2018-01-03T09:59:43.028Z,55
2018-01-03T10:00:43.529Z,60
2018-01-03T10:01:43.276Z,65
2018-01-03T10:02:43.272Z,60
2018-01-03T10:03:43.279Z,70
2018-01-03T10:04:43.008Z,75
2018-01-03T10:05:43.242Z,80
2018-01-03T10:06:42.746Z,75
2018-01-03T10:07:43.255Z,75
2018-01-03T10:08:43.482Z,75
2018-01-03T10:09:43.231Z,75
2018-01-03T10:10:42.971Z,80
2018-01-03T10:11:43.225Z,90
2018-01-03T10:12:43.463Z,90
2018-01-03T10:13:43.196Z,90
2018-01-03T10:14:43.242Z,80
2018-01-03T10:15:43.467Z,75
2018-01-03T10:16:43.187Z,75
2018-01-03T10:17:43.178Z,70
2018-01-03T10:18:43.177Z,60
2018-01-03T10:19:43.414Z,50
2018-01-03T10:20:43.416Z,45
2018-01-03T10:21:43.149Z,40
2018-01-03T10:52:25.446Z,30
2018-01-03T10:53:25.126Z,35
2018-01-03T10:54:25.625Z,40
2018-01-03T10:55:25.118Z,40
2018-01-03T10:56:25.352Z,40
2018-01-03T10:57:24.811Z,40
2018-01-03T10:58:25.100Z,40
2018-01-03T10:59:25.303Z,45
2018-01-03T11:00:24.781Z,50
2018-01-03T11:01:25.031Z,50
2018-01-03T11:02:24.819Z,50
2018-01-03T11:03:25.513Z,45
2018-01-03T11:04:25.501Z,50
2018-01-03T11:05:25.294Z,50
2018-01-03T11:06:24.989Z,55
2018-01-03T11:07:24.977Z,55
2018-01-03T11:08:25.222Z,55
2018-01-03T11:09:24.976Z,70
2018-01-03T11:10:25.818Z,85
2018-01-03T11:11:24.954Z,90
2018-01-03T11:12:24.716Z,95
2018-01-03T11:13:25.207Z,95
2018-01-03T11:14:25.212Z,90
2018-01-03T11:15:24.922Z,90
2018-01-03T11:16:24.934Z,80
2018-01-03T11:17:25.427Z,80
2018-01-03T11:18:24.666Z,90
2018-01-03T11:19:24.906Z,100
2018-01-03T11:20:24.765Z,130
2018-01-03T11:21:25.162Z,155
2018-01-03T11:22:25.390Z,180
2018-01-03T11:23:25.137Z,205
2018-01-03T11:24:25.138Z,215
2018-01-03T11:25:25.028Z,215
2018-01-03T11:26:25.123Z,200
2018-01-03T11:27:24.872Z,185
2018-01-03T11:28:24.861Z,165
2018-01-03T11:29:24.606Z,145
2018-01-03T11:30:25.075Z,130
2018-01-03T11:31:25.133Z,135
2018-01-03T11:32:25.370Z,140
2018-01-03T11:33:24.572Z,140
2018-01-03T11:34:25.320Z,150
2018-01-03T11:35:24.996Z,150
2018-01-03T11:36:25.060Z,150
2018-01-03T11:37:25.050Z,145
2018-01-03T11:38:24.799Z,185
2018-01-03T11:39:24.795Z,175
2018-01-03T11:40:25.342Z,165
2018-01-03T11:41:25.073Z,145
2018-01-03T11:42:24.776Z,175
2018-01-03T11:43:24.780Z,150
2018-01-03T11:44:25.192Z,160
2018-01-03T11:45:25.039Z,175
2018-01-03T11:46:24.993Z,145
2018-01-03T11:47:24.500Z,150
2018-01-03T11:48:25.041Z,150
2018-01-03T11:49:24.968Z,140
2018-01-03T11:50:24.977Z,160
2018-01-03T11:51:24.736Z,145
2018-01-03T11:52:24.971Z,140
2018-01-03T11:53:25.232Z,140
2018-01-03T11:54:24.710Z,160
2018-01-03T11:55:25.036Z,165
2018-01-03T11:56:24.965Z,155
2018-01-03T11:57:24.693Z,155
2018-01-03T11:58:24.696Z,150
2018-01-03T11:59:24.435Z,155
2018-01-03T12:00:24.768Z,145
2018-01-03T12:01:24.938Z,160
2018-01-03T12:02:25.176Z,155
2018-01-03T12:03:24.698Z,145
2018-01-03T12:04:24.409Z,130
2018-01-03T12:05:24.917Z,120
2018-01-03T12:06:24.897Z,125
2018-01-03T12:07:24.137Z,135
2018-01-03T12:08:24.382Z,130
2018-01-03T12:09:24.892Z,130
2018-01-03T12:10:25.145Z,125
2018-01-03T12:11:24.629Z,110
2018-01-03T12:12:24.650Z,100
2018-01-03T12:13:24.886Z,80
2018-01-03T12:14:24.687Z,85
2018-01-03T12:15:25.070Z,80
2018-01-03T12:16:25.114Z,70
2018-01-03T12:17:24.841Z,65
2018-01-03T12:18:24.840Z,65
2018-01-03T12:19:24.831Z,75
2018-01-03T12:20:25.528Z,90
2018-01-03T12:21:24.591Z,95
2018-01-03T12:22:24.568Z,100
2018-01-03T12:23:24.317Z,110
2018-01-03T12:24:24.552Z,120
2018-01-03T12:25:26.385Z,130
2018-01-03T12:26:24.549Z,140
2018-01-03T12:27:24.803Z,155
2018-01-03T12:28:25.038Z,180
2018-01-03T12:29:24.538Z,185
2018-01-03T12:30:24.977Z,185
2018-01-03T12:31:24.789Z,185
2018-01-03T12:32:24.277Z,195
2018-01-03T12:33:24.272Z,205
2018-01-03T12:34:24.779Z,195
2018-01-03T12:35:24.634Z,195
2018-01-03T12:36:24.533Z,185
2018-01-03T12:37:24.845Z,185
2018-01-03T12:38:24.503Z,195
2018-01-03T12:39:25.013Z,180
2018-01-03T12:40:24.965Z,190
2018-01-03T12:41:24.587Z,190
2018-01-03T12:42:24.482Z,190
2018-01-03T12:43:24.223Z,200
2018-01-03T12:44:25.021Z,200
2018-01-03T12:45:24.649Z,195
2018-01-03T12:46:24.778Z,195
2018-01-03T12:47:24.460Z,185
2018-01-03T12:48:24.699Z,180
2018-01-03T12:49:25.092Z,175
2018-01-03T12:50:24.624Z,170
2018-01-03T12:51:24.437Z,175
2018-01-03T12:52:24.699Z,165
2018-01-03T12:53:23.922Z,170
2018-01-03T12:54:24.426Z,165
2018-01-03T12:55:24.751Z,165
2018-01-03T12:56:23.905Z,150
2018-01-03T12:57:24.661Z,160
2018-01-03T12:58:24.410Z,160
2018-01-03T12:59:24.648Z,160
2018-01-03T13:00:24.193Z,175
2018-01-03T13:01:24.667Z,175
2018-01-03T13:02:24.638Z,190
2018-01-03T13:03:24.643Z,175
2018-01-03T13:04:24.622Z,175
2018-01-03T13:05:24.369Z,145
2018-01-03T13:06:24.397Z,160
2018-01-03T13:07:24.631Z,145
2018-01-03T13:08:24.117Z,130
2018-01-03T13:09:24.622Z,130
2018-01-03T13:10:24.432Z,125
2018-01-03T13:11:24.097Z,125
2018-01-03T13:12:24.597Z,140
2018-01-03T13:13:24.405Z,135
2018-01-03T13:14:24.327Z,125
2018-01-03T13:15:24.558Z,130
2018-01-03T13:16:24.836Z,130
2018-01-03T13:17:24.866Z,135
2018-01-03T13:18:24.328Z,140
2018-01-03T13:19:24.858Z,145
2018-01-03T13:20:24.312Z,135
2018-01-03T13:21:24.302Z,120
2018-01-03T13:22:24.876Z,110
2018-01-03T13:23:24.287Z,120
2018-01-03T13:24:24.287Z,125
2018-01-03T13:25:24.687Z,120
2018-01-03T13:26:24.544Z,120
2018-01-03T13:27:24.278Z,125
2018-01-03T13:28:24.279Z,120
2018-01-03T13:29:24.519Z,125
2018-01-03T13:30:24.522Z,125
2018-01-03T13:31:24.505Z,120
2018-01-03T13:32:24.518Z,115
2018-01-03T13:33:24.755Z,110
2018-01-03T13:34:24.236Z,105
2018-01-03T13:35:24.818Z,120
2018-01-03T13:36:24.260Z,120
2018-01-03T13:37:24.496Z,125
2018-01-03T13:38:24.223Z,120
2018-01-03T13:39:24.472Z,115
2018-01-03T13:40:24.634Z,100
2018-01-03T13:41:24.813Z,110
2018-01-03T13:42:24.466Z,110
2018-01-03T13:43:24.473Z,105
2018-01-03T13:44:23.943Z,105
2018-01-03T13:45:24.589Z,95
2018-01-03T13:46:24.432Z,95
2018-01-03T13:47:24.195Z,95
2018-01-03T13:48:24.705Z,95
2018-01-03T13:49:24.500Z,95
2018-01-03T13:50:24.426Z,95
2018-01-03T13:51:23.933Z,95
2018-01-03T13:52:24.180Z,90
2018-01-03T13:53:24.418Z,90
2018-01-03T13:54:24.397Z,90
2018-01-03T13:55:24.290Z,85
2018-01-03T13:56:23.885Z,85
2018-01-03T13:57:24.407Z,85
2018-01-03T13:58:24.393Z,85
2018-01-03T13:59:24.130Z,85
2018-01-03T14:00:24.505Z,90
2018-01-03T14:01:24.119Z,90
2018-01-03T14:02:24.147Z,85
2018-01-03T14:03:24.604Z,85
2018-01-03T14:04:24.109Z,80
2018-01-03T14:05:24.140Z,80
2018-01-03T14:06:24.355Z,80
2018-01-03T14:07:24.081Z,80
2018-01-03T14:08:24.085Z,75
2018-01-03T14:09:24.071Z,80
2018-01-03T14:10:24.625Z,80
2018-01-03T14:11:24.314Z,75
2018-01-03T14:12:24.558Z,75
2018-01-03T14:13:24.602Z,80
2018-01-03T14:14:24.553Z,80
2018-01-03T14:15:24.948Z,85
2018-01-03T14:16:23.552Z,85
2018-01-03T14:17:23.780Z,85
2018-01-03T14:18:24.027Z,80
2018-01-03T14:19:24.276Z,80
2018-01-03T14:20:24.854Z,80
2018-01-03T14:21:23.785Z,80
2018-01-03T14:22:24.270Z,80
2018-01-03T14:23:23.761Z,80
2018-01-03T14:24:24.505Z,85
2018-01-03T14:25:24.206Z,85
2018-01-03T14:26:24.497Z,85
2018-01-03T14:27:24.271Z,85
2018-01-03T14:28:24.494Z,80
2018-01-03T14:29:23.981Z,80
2018-01-03T14:30:24.310Z,80
2018-01-03T14:31:24.240Z,80
2018-01-03T14:32:24.224Z,80
2018-01-03T14:33:24.211Z,80
2018-01-03T14:34:24.547Z,80
2018-01-03T14:35:24.504Z,80
2018-01-03T14:36:24.184Z,80
2018-01-03T14:37:24.223Z,80
2018-01-03T14:38:24.432Z,80
2018-01-03T14:39:24.433Z,80
2018-01-03T14:40:24.164Z,80
2018-01-03T14:41:24.415Z,80
2018-01-03T14:42:23.970Z,75
2018-01-03T14:43:24.423Z,75
2018-01-03T14:44:23.907Z,75
2018-01-03T14:45:24.245Z,75
2018-01-03T14:46:24.394Z,75
2018-01-03T14:47:23.902Z,75
2018-01-03T14:48:24.386Z,75
2018-01-03T14:49:23.897Z,75
2018-01-03T14:50:24.642Z,70
2018-01-03T14:51:24.160Z,70
2018-01-03T14:52:24.153Z,65
2018-01-03T14:53:24.425Z,65
2018-01-03T14:54:24.107Z,60
2018-01-03T14:55:24.276Z,60
2018-01-03T14:56:24.114Z,55
2018-01-03T14:57:24.364Z,55
2018-01-03T14:58:24.135Z,50
2018-01-03T14:59:24.122Z,50